Time;durP1;ratioP1;P1;durP2;ratioP2;P2;SDS_P1;SDS_P2;PMS_P1;PMS_P2;Temp;Humidity;BMP_temperature;BMP_pressure;BME280_temperature;BME280_humidity;BME280_pressure;Samples;Min_cycle;Max_cycle;Signal;HPM_P1;HPM_P2
2022/04/21 00:01:17;;;;;;;0.82;0.60;;;20.10;99.90;;;;;;5013446;28;20248;-76
2022/04/21 00:03:47;;;;;;;2.70;0.70;;;20.20;99.90;;;;;;5015078;28;20187;-72
2022/04/21 00:06:18;;;;;;;0.55;0.50;;;20.30;99.90;;;;;;5010781;28;20199;-76
2022/04/21 00:08:50;;;;;;;1.88;0.63;;;20.40;99.90;;;;;;5002780;28;20199;-75
2022/04/21 00:11:21;;;;;;;1.38;0.50;;;20.40;99.90;;;;;;5013908;28;20540;-74
2022/04/21 00:13:51;;;;;;;3.10;0.50;;;20.50;99.90;;;;;;5009578;28;20664;-74
2022/04/21 00:16:22;;;;;;;1.52;0.60;;;20.60;99.90;;;;;;5011948;28;20202;-77
2022/04/21 00:18:53;;;;;;;1.20;0.50;;;20.70;99.90;;;;;;5014011;28;20195;-70
2022/04/21 00:23:25;;;;;;;2.20;0.60;;;20.80;99.90;;;;;;5016333;28;20187;-79
2022/04/21 00:24:15;;;;;;;2.28;0.60;;;20.90;99.90;;;;;;5012603;28;20206;-77
2022/04/21 00:26:45;;;;;;;0.93;0.70;;;21.00;99.90;;;;;;5007076;28;20560;-83
2022/04/21 00:29:17;;;;;;;1.20;0.52;;;21.10;99.90;;;;;;5014472;28;20222;-81
2022/04/21 00:31:47;;;;;;;3.17;0.80;;;21.20;99.90;;;;;;5012202;28;20561;-75
2022/04/21 00:34:18;;;;;;;1.95;0.60;;;21.40;99.90;;;;;;5012596;28;20194;-77
2022/04/21 00:36:49;;;;;;;0.52;0.40;;;21.50;99.90;;;;;;5014538;28;20199;-74
2022/04/21 00:39:21;;;;;;;1.08;0.60;;;21.50;99.90;;;;;;5016543;28;20199;-74
2022/04/21 00:41:57;;;;;;;2.63;0.73;;;21.70;99.90;;;;;;5015447;28;20207;-70
2022/04/21 00:44:27;;;;;;;2.47;0.80;;;21.90;99.90;;;;;;5016369;28;20198;-80
2022/04/21 00:47:01;;;;;;;4.75;0.68;;;22.00;99.90;;;;;;5014836;28;20241;-72
2022/04/21 00:49:34;;;;;;;3.83;0.65;;;22.10;99.90;;;;;;5015639;28;20260;-72
2022/04/21 00:52:06;;;;;;;1.13;0.63;;;22.20;99.90;;;;;;5014958;28;20226;-75
2022/04/21 00:54:38;;;;;;;1.13;0.80;;;22.30;99.90;;;;;;5015929;28;20191;-70
2022/04/21 00:57:09;;;;;;;1.90;0.68;;;22.40;99.90;;;;;;5012128;28;20203;-77
2022/04/21 00:59:41;;;;;;;2.45;0.70;;;22.40;99.90;;;;;;5015209;28;20230;-73
2022/04/21 01:04:59;;;;;;;1.63;0.68;;;22.60;99.90;;;;;;5015586;28;20210;-70
2022/04/21 01:07:30;;;;;;;1.55;0.43;;;22.70;99.90;;;;;;5012680;28;20195;-75
2022/04/21 01:10:02;;;;;;;1.60;0.65;;;22.80;99.90;;;;;;5004041;28;20310;-75
2022/04/21 01:12:34;;;;;;;1.55;0.77;;;22.70;99.90;;;;;;5016041;28;20562;-71
2022/04/21 01:15:05;;;;;;;1.33;0.50;;;22.80;99.90;;;;;;5014333;28;20613;-74
2022/04/21 01:17:37;;;;;;;0.63;0.60;;;22.40;99.90;;;;;;5013935;28;20207;-75
2022/04/21 01:20:09;;;;;;;2.85;0.80;;;22.30;99.90;;;;;;5009696;28;20280;-77
2022/04/21 01:22:42;;;;;;;3.88;0.50;;;22.40;99.90;;;;;;5015214;28;20651;-75
2022/04/21 01:25:12;;;;;;;4.47;0.70;;;22.50;99.90;;;;;;5013692;28;20206;-78
2022/04/21 01:27:44;;;;;;;1.58;0.57;;;22.50;99.90;;;;;;5012468;28;20234;-73
2022/04/21 01:30:16;;;;;;;2.30;0.75;;;22.50;99.90;;;;;;5013625;28;20219;-71
2022/04/21 01:32:49;;;;;;;3.88;1.00;;;22.70;99.90;;;;;;5014142;28;20242;-72
2022/04/21 01:35:20;;;;;;;5.40;1.10;;;22.70;99.90;;;;;;5010727;28;20210;-70
2022/04/21 01:43:40;;;;;;;3.63;1.02;;;22.80;99.90;;;;;;4967288;28;20612;-78
2022/04/21 01:46:11;;;;;;;3.80;0.95;;;22.40;99.90;;;;;;4971597;28;20196;-71
2022/04/21 01:48:42;;;;;;;3.05;1.05;;;22.40;99.90;;;;;;4990733;28;20234;-73
2022/04/21 01:51:13;;;;;;;2.63;1.08;;;22.60;99.90;;;;;;5013283;28;20717;-81
2022/04/21 01:53:45;;;;;;;6.88;1.33;;;22.70;99.90;;;;;;5014191;22;20235;-69
2022/04/21 01:56:16;;;;;;;3.22;1.20;;;22.70;99.90;;;;;;5012310;28;20202;-69
2022/04/21 01:58:47;;;;;;;3.75;1.23;;;22.60;99.90;;;;;;5008157;28;20195;-72
2022/04/21 02:01:17;;;;;;;3.85;1.10;;;22.40;99.90;;;;;;5014222;28;20191;-70
2022/04/21 02:03:48;;;;;;;2.80;0.90;;;22.30;99.90;;;;;;5012064;28;20191;-69
2022/04/21 02:06:18;;;;;;;2.10;0.80;;;22.10;99.90;;;;;;5011846;28;20597;-84
2022/04/21 02:08:51;;;;;;;4.40;1.20;;;21.90;99.90;;;;;;5011615;28;20201;-72
2022/04/21 02:11:21;;;;;;;6.25;1.15;;;21.80;99.90;;;;;;5011349;28;20211;-70
2022/04/21 02:13:52;;;;;;;3.13;1.38;;;21.70;99.90;;;;;;5012098;28;20592;-69
2022/04/21 02:16:23;;;;;;;3.38;1.35;;;21.40;99.90;;;;;;5009941;28;20209;-70
2022/04/21 02:18:54;;;;;;;2.15;0.75;;;21.00;99.90;;;;;;5009652;28;20206;-69
2022/04/21 02:21:24;;;;;;;2.25;0.73;;;20.60;99.90;;;;;;5014312;28;20674;-71
2022/04/21 02:23:57;;;;;;;1.70;0.73;;;20.10;99.90;;;;;;5009683;28;20781;-71
2022/04/21 02:26:27;;;;;;;4.55;1.02;;;19.70;99.90;;;;;;5007544;28;20195;-72
2022/04/21 02:28:58;;;;;;;7.25;1.10;;;19.40;99.90;;;;;;5009513;28;20202;-71
2022/04/21 02:31:28;;;;;;;2.63;0.95;;;19.10;99.90;;;;;;5006368;28;20226;-71
2022/04/21 02:33:59;;;;;;;3.17;0.90;;;19.00;99.90;;;;;;5002486;28;20277;-71
2022/04/21 02:36:30;;;;;;;2.40;0.77;;;18.80;99.90;;;;;;5013401;28;20566;-72
2022/04/21 02:39:02;;;;;;;2.83;1.00;;;18.80;99.90;;;;;;5010986;28;20195;-76
2022/04/21 02:41:33;;;;;;;3.63;0.82;;;18.70;99.90;;;;;;5007228;28;20210;-72
2022/04/21 02:44:03;;;;;;;1.90;0.80;;;18.60;99.90;;;;;;5013701;28;20199;-71
2022/04/21 02:46:36;;;;;;;4.90;1.30;;;18.50;99.90;;;;;;5013422;28;20195;-72
2022/04/21 02:49:07;;;;;;;5.40;1.40;;;18.40;99.90;;;;;;5012456;28;20789;-72
2022/04/21 02:51:37;;;;;;;6.03;1.90;;;18.40;99.90;;;;;;5013642;28;20215;-71
2022/04/21 02:59:44;;;;;;;5.45;1.63;;;18.20;99.90;;;;;;4991110;28;20238;-71
2022/04/21 03:02:14;;;;;;;5.13;1.83;;;18.10;99.90;;;;;;4992322;28;20199;-71
2022/04/21 03:04:45;;;;;;;6.07;1.70;;;18.20;99.90;;;;;;4992387;28;20195;-72
2022/04/21 03:07:17;;;;;;;8.45;2.20;;;18.10;99.90;;;;;;4993109;28;20196;-71
2022/04/21 03:09:49;;;;;;;7.78;1.90;;;18.10;99.90;;;;;;4986728;28;20195;-72
2022/04/21 03:12:20;;;;;;;5.10;1.92;;;18.10;99.90;;;;;;4988284;28;20271;-73
2022/04/21 03:14:51;;;;;;;6.22;1.98;;;18.10;99.90;;;;;;4991156;28;20198;-71
2022/04/21 03:17:22;;;;;;;4.97;2.00;;;18.10;99.90;;;;;;4993115;28;20210;-77
2022/04/21 03:19:52;;;;;;;8.23;2.10;;;18.10;99.90;;;;;;4991028;28;20604;-79
2022/04/21 03:25:13;;;;;;;6.78;2.20;;;18.10;99.90;;;;;;4991818;28;20567;-71
2022/04/21 03:27:46;;;;;;;6.95;2.15;;;18.00;99.90;;;;;;4991564;28;20678;-72
2022/04/21 03:30:17;;;;;;;10.20;2.10;;;18.00;99.90;;;;;;4993317;28;20227;-78
2022/04/21 03:32:48;;;;;;;7.40;1.80;;;18.00;99.90;;;;;;4986262;28;20262;-81
2022/04/21 03:35:18;;;;;;;7.72;1.55;;;17.90;99.90;;;;;;4984874;28;20667;-72
2022/04/21 03:37:49;;;;;;;7.07;1.95;;;17.90;99.90;;;;;;4999176;28;20221;-84
2022/04/21 03:40:21;;;;;;;7.43;1.77;;;17.90;99.90;;;;;;4993470;28;20211;-74
2022/04/21 03:42:52;;;;;;;12.98;2.00;;;17.90;99.90;;;;;;4990462;28;20251;-79
2022/04/21 03:45:23;;;;;;;7.78;1.63;;;17.90;99.90;;;;;;4994213;28;20253;-73
2022/04/21 03:47:53;;;;;;;5.47;1.40;;;17.90;99.90;;;;;;4989293;28;20601;-77
2022/04/21 03:50:24;;;;;;;9.00;1.98;;;17.80;99.90;;;;;;4993318;28;20282;-77
2022/04/21 03:52:55;;;;;;;5.68;1.40;;;17.90;99.90;;;;;;4994464;28;20243;-78
2022/04/21 03:55:28;;;;;;;5.13;1.52;;;17.90;99.90;;;;;;4994187;28;20635;-79
2022/04/21 03:57:58;;;;;;;4.85;1.50;;;17.80;99.90;;;;;;4995445;28;20199;-72
2022/04/21 04:00:29;;;;;;;2.53;1.02;;;17.80;99.90;;;;;;4994752;28;20196;-73
2022/04/21 04:02:59;;;;;;;7.68;1.58;;;17.80;99.90;;;;;;4992025;28;20199;-72
2022/04/21 04:05:32;;;;;;;6.95;1.30;;;17.80;99.90;;;;;;4990191;28;20195;-71
2022/04/21 04:10:54;;;;;;;5.95;1.40;;;17.90;99.90;;;;;;4993841;28;20686;-87
2022/04/21 04:13:26;;;;;;;4.68;1.20;;;17.80;99.90;;;;;;4993874;28;20196;-78
2022/04/21 04:15:57;;;;;;;9.20;1.50;;;17.90;99.90;;;;;;4990451;28;20196;-75
2022/04/21 04:18:28;;;;;;;6.15;1.23;;;17.90;99.90;;;;;;4990972;28;20204;-80
2022/04/21 04:20:59;;;;;;;9.95;1.85;;;17.80;99.90;;;;;;4993736;28;20210;-74
2022/04/21 04:23:30;;;;;;;4.18;1.30;;;17.90;99.90;;;;;;4990149;28;20258;-78
2022/04/21 04:26:02;;;;;;;8.88;1.52;;;17.90;99.90;;;;;;4994413;28;20203;-76
2022/04/21 04:28:34;;;;;;;8.23;1.27;;;17.80;99.90;;;;;;4991172;28;20606;-78
2022/04/21 04:31:04;;;;;;;7.70;1.08;;;17.80;99.90;;;;;;4991334;28;20475;-81
2022/04/21 04:33:35;;;;;;;7.25;1.40;;;17.90;99.90;;;;;;4991920;28;20204;-79
2022/04/21 04:36:09;;;;;;;5.18;1.25;;;17.90;99.90;;;;;;4995565;28;20200;-74
2022/04/21 04:38:40;;;;;;;4.68;1.05;;;17.80;99.90;;;;;;4995350;28;20195;-79
2022/04/21 04:43:59;;;;;;;9.10;1.45;;;17.90;99.90;;;;;;4997340;28;20658;-77
2022/04/21 04:46:38;;;;;;;5.80;1.67;;;17.90;99.90;;;;;;4996921;28;20211;-80
2022/04/21 04:49:09;;;;;;;7.00;1.67;;;17.90;99.90;;;;;;4996263;28;20191;-79
2022/04/21 04:51:41;;;;;;;8.20;1.50;;;17.90;99.90;;;;;;4996271;28;20215;-80
2022/04/21 04:54:12;;;;;;;8.00;1.40;;;17.90;99.90;;;;;;4996103;28;20587;-76
2022/04/21 04:56:45;;;;;;;6.43;1.50;;;17.90;99.90;;;;;;4996587;28;20705;-74
2022/04/21 04:59:16;;;;;;;4.38;1.42;;;18.00;99.90;;;;;;4996658;28;20199;-79
2022/04/21 05:01:47;;;;;;;5.63;1.40;;;17.90;99.90;;;;;;4996212;28;20262;-72
2022/04/21 05:04:19;;;;;;;6.20;1.20;;;18.00;99.90;;;;;;4996599;28;20187;-78
2022/04/21 05:06:51;;;;;;;5.68;1.30;;;18.00;99.90;;;;;;4996493;28;20639;-76
2022/04/21 05:09:23;;;;;;;6.13;1.30;;;18.00;99.90;;;;;;4985824;28;20191;-74
2022/04/21 05:11:57;;;;;;;10.30;1.15;;;18.10;99.90;;;;;;4996164;28;20314;-73
2022/04/21 05:14:29;;;;;;;3.83;0.95;;;18.20;99.90;;;;;;4991204;28;20204;-75
2022/04/21 05:16:59;;;;;;;5.72;0.93;;;18.30;99.90;;;;;;4995851;28;20191;-72
2022/04/21 05:19:30;;;;;;;2.08;0.85;;;18.40;99.90;;;;;;4995883;28;20634;-73
2022/04/21 05:22:04;;;;;;;6.10;1.30;;;18.40;99.90;;;;;;4995720;28;20250;-74
2022/04/21 05:24:36;;;;;;;2.83;1.17;;;18.50;99.90;;;;;;4995907;28;20279;-72
2022/04/21 05:27:09;;;;;;;4.70;1.10;;;18.50;99.90;;;;;;4996157;28;20199;-71
2022/04/21 05:32:30;;;;;;;3.78;1.05;;;18.60;99.90;;;;;;4995925;28;20226;-74
2022/04/21 05:35:01;;;;;;;5.70;1.40;;;18.50;99.90;;;;;;4996255;28;20215;-73
2022/04/21 05:37:32;;;;;;;5.00;1.50;;;18.50;99.90;;;;;;4996113;28;20192;-75
2022/04/21 05:40:03;;;;;;;7.03;1.50;;;18.40;99.90;;;;;;4995904;28;20275;-78
2022/04/21 05:42:42;;;;;;;4.22;1.58;;;18.40;99.90;;;;;;4996031;28;20242;-75
2022/04/21 05:45:14;;;;;;;2.53;1.23;;;18.50;99.90;;;;;;4995111;28;20235;-76
2022/04/21 05:47:46;;;;;;;5.32;1.42;;;18.60;99.90;;;;;;4995974;28;20247;-77
2022/04/21 05:50:18;;;;;;;3.60;1.27;;;18.60;99.90;;;;;;4991358;28;20250;-74
2022/04/21 05:52:51;;;;;;;4.63;1.25;;;18.60;99.90;;;;;;4994857;28;20228;-76
2022/04/21 05:55:22;;;;;;;4.32;1.30;;;18.70;99.90;;;;;;4990148;28;20192;-75
2022/04/21 05:57:55;;;;;;;4.57;1.25;;;18.70;99.90;;;;;;4995557;28;20196;-74
2022/04/21 06:00:25;;;;;;;3.88;1.20;;;18.60;99.90;;;;;;4995194;28;20230;-74
2022/04/21 06:02:56;;;;;;;2.03;1.10;;;18.70;99.90;;;;;;4995292;28;20254;-74
2022/04/21 06:05:27;;;;;;;3.38;1.25;;;18.60;99.90;;;;;;4976134;28;20618;-74
2022/04/21 06:07:58;;;;;;;4.70;1.30;;;18.60;99.90;;;;;;4992110;28;20198;-74
2022/04/21 06:10:28;;;;;;;5.82;1.30;;;18.60;99.90;;;;;;4995452;28;20195;-74
2022/04/21 06:13:01;;;;;;;3.95;1.23;;;18.60;99.90;;;;;;4995117;28;20198;-74
2022/04/21 06:15:32;;;;;;;6.78;1.55;;;18.60;99.90;;;;;;4995172;28;20228;-76
2022/04/21 06:18:03;;;;;;;6.47;1.50;;;18.60;99.90;;;;;;4995183;28;20554;-74
2022/04/21 06:20:34;;;;;;;4.80;1.40;;;18.60;99.90;;;;;;4992062;28;20647;-73
2022/04/21 06:23:05;;;;;;;2.22;1.40;;;18.60;99.90;;;;;;4994598;28;20191;-76
2022/04/21 06:25:36;;;;;;;5.53;1.33;;;18.60;99.90;;;;;;4994648;28;20271;-75
2022/04/21 06:28:08;;;;;;;5.80;1.30;;;18.60;99.90;;;;;;4994486;28;20227;-76
2022/04/21 06:30:39;;;;;;;4.30;1.40;;;18.70;99.90;;;;;;4994289;28;20183;-74
2022/04/21 06:33:10;;;;;;;9.18;1.50;;;18.70;99.90;;;;;;4994497;28;20196;-75
2022/04/21 06:35:40;;;;;;;3.00;1.20;;;18.70;99.90;;;;;;4994427;28;20187;-74
2022/04/21 06:38:11;;;;;;;6.03;1.20;;;18.80;99.90;;;;;;4993341;28;20196;-74
2022/04/21 06:40:42;;;;;;;3.95;1.10;;;18.80;99.90;;;;;;4994574;28;20187;-73
2022/04/21 06:48:47;;;;;;;3.83;1.30;;;18.80;99.90;;;;;;4993025;28;20202;-75
2022/04/21 06:51:20;;;;;;;3.67;1.00;;;18.80;99.90;;;;;;4993734;28;20634;-74
2022/04/21 06:53:51;;;;;;;2.45;1.00;;;18.80;99.90;;;;;;4993555;28;20243;-74
2022/04/21 06:56:21;;;;;;;4.57;0.98;;;18.80;99.90;;;;;;4984424;28;20266;-75
2022/04/21 06:58:55;;;;;;;6.07;1.35;;;18.90;99.90;;;;;;4991568;28;20250;-75
2022/04/21 07:01:25;;;;;;;3.95;1.17;;;18.90;99.90;;;;;;4994358;28;20243;-74
2022/04/21 07:03:56;;;;;;;7.25;1.35;;;18.90;99.90;;;;;;4984589;28;20200;-75
2022/04/21 07:06:26;;;;;;;4.63;1.27;;;18.90;99.90;;;;;;4992614;28;20199;-75
2022/04/21 07:08:57;;;;;;;5.18;1.23;;;18.90;99.90;;;;;;4992802;28;20281;-74
2022/04/21 07:11:28;;;;;;;3.50;1.20;;;18.90;99.90;;;;;;4989844;28;20212;-73
2022/04/21 07:14:00;;;;;;;3.03;1.05;;;18.90;99.90;;;;;;4990801;28;20334;-74
2022/04/21 07:16:31;;;;;;;4.50;1.20;;;18.90;99.90;;;;;;4985700;28;20208;-74
2022/04/21 07:19:01;;;;;;;5.43;1.10;;;18.90;99.90;;;;;;4989976;28;20203;-74
2022/04/21 07:21:32;;;;;;;3.15;0.98;;;18.90;99.90;;;;;;4989709;28;20609;-73
2022/04/21 07:24:02;;;;;;;3.38;1.13;;;19.00;99.90;;;;;;4993004;28;20211;-73
2022/04/21 07:26:33;;;;;;;3.92;1.10;;;19.00;99.90;;;;;;4993470;28;20196;-74
2022/04/21 07:29:05;;;;;;;5.65;1.55;;;19.00;99.90;;;;;;4991357;28;20530;-73
2022/04/21 07:31:37;;;;;;;7.72;1.40;;;19.00;99.90;;;;;;4987612;28;20693;-74
2022/04/21 07:34:08;;;;;;;6.93;1.08;;;19.00;99.90;;;;;;4993036;28;20258;-74
2022/04/21 07:36:38;;;;;;;4.05;0.80;;;18.90;99.90;;;;;;4992072;28;20195;-73
2022/04/21 07:39:09;;;;;;;5.78;1.10;;;18.90;99.90;;;;;;4988491;28;20200;-73
2022/04/21 07:41:40;;;;;;;3.20;1.02;;;19.00;99.90;;;;;;4993261;28;20203;-74
2022/04/21 07:44:12;;;;;;;6.18;1.17;;;19.00;99.90;;;;;;4990106;28;20195;-74
2022/04/21 07:46:43;;;;;;;3.47;0.98;;;19.00;99.90;;;;;;4988630;28;20249;-75
2022/04/21 07:54:43;;;;;;;5.32;1.17;;;19.20;99.90;;;;;;5003194;28;20210;-74
2022/04/21 07:57:14;;;;;;;5.97;1.20;;;19.10;99.90;;;;;;5012912;28;20233;-73
2022/04/21 07:59:47;;;;;;;3.35;1.13;;;19.20;99.90;;;;;;5012990;28;20191;-74
2022/04/21 08:02:18;;;;;;;5.60;1.20;;;19.20;99.90;;;;;;5009278;28;20207;-74
2022/04/21 08:04:49;;;;;;;3.22;1.15;;;19.20;99.90;;;;;;5008126;28;20203;-74
2022/04/21 08:07:19;;;;;;;4.10;1.15;;;19.20;99.90;;;;;;5013117;28;20538;-74
2022/04/21 08:09:50;;;;;;;5.18;1.48;;;19.10;99.90;;;;;;5029538;28;20206;-74
2022/04/21 08:12:21;;;;;;;4.35;1.00;;;19.00;99.90;;;;;;5015658;28;20685;-73
2022/04/21 08:14:53;;;;;;;3.22;1.00;;;18.90;99.90;;;;;;5015381;28;20206;-74
2022/04/21 08:17:24;;;;;;;2.90;1.10;;;19.00;99.90;;;;;;5012128;28;20195;-74
2022/04/21 08:19:54;;;;;;;5.47;1.15;;;18.90;99.90;;;;;;5006940;28;20191;-74
2022/04/21 08:22:25;;;;;;;5.15;1.30;;;18.90;99.90;;;;;;5027150;28;20543;-73
2022/04/21 08:33:17;;;;;;;7.70;1.52;;;18.90;99.90;;;;;;5018135;28;20229;-74
2022/04/21 08:35:49;;;;;;;10.00;1.70;;;18.80;99.90;;;;;;5030197;28;20264;-73
2022/04/21 08:38:20;;;;;;;5.63;1.38;;;18.90;99.90;;;;;;5015484;28;20198;-74
2022/04/21 08:40:54;;;;;;;3.53;1.20;;;18.90;99.90;;;;;;5023880;28;20217;-74
2022/04/21 08:43:25;;;;;;;2.83;1.20;;;18.80;99.90;;;;;;5015846;28;20199;-73
2022/04/21 08:45:58;;;;;;;5.07;1.40;;;18.90;99.90;;;;;;5023916;28;20225;-74
2022/04/21 08:48:29;;;;;;;4.55;0.90;;;18.90;99.90;;;;;;5022938;28;20196;-75
2022/04/21 08:51:01;;;;;;;4.28;1.10;;;18.90;99.90;;;;;;5012653;28;20304;-73
2022/04/21 08:53:32;;;;;;;6.90;1.23;;;18.90;99.90;;;;;;5012998;28;20285;-73
2022/04/21 08:56:03;;;;;;;7.70;1.48;;;18.90;99.90;;;;;;5016426;28;20642;-74
2022/04/21 08:58:34;;;;;;;2.80;1.05;;;18.90;99.90;;;;;;5011734;28;20191;-73
2022/04/21 09:01:06;;;;;;;4.85;1.13;;;18.80;99.90;;;;;;5011689;28;20246;-74
2022/04/21 09:03:37;;;;;;;4.88;0.90;;;18.80;99.90;;;;;;5014565;28;20616;-73
2022/04/21 09:06:08;;;;;;;3.80;0.98;;;18.90;99.90;;;;;;5008313;28;20293;-75
2022/04/21 09:08:38;;;;;;;3.72;1.10;;;18.90;99.90;;;;;;5014192;28;20659;-73
2022/04/21 09:11:10;;;;;;;3.80;1.10;;;18.90;99.90;;;;;;5012848;28;20423;-73
2022/04/21 09:13:41;;;;;;;7.43;1.20;;;18.90;99.90;;;;;;5012819;28;21147;-74
2022/04/21 09:16:20;;;;;;;5.90;1.15;;;18.90;99.90;;;;;;5012082;28;20662;-73
2022/04/21 09:18:51;;;;;;;4.93;1.25;;;19.00;99.90;;;;;;5009300;28;20192;-75
2022/04/21 09:21:21;;;;;;;7.40;1.30;;;19.00;99.90;;;;;;5010960;28;20277;-73
2022/04/21 09:23:54;;;;;;;9.43;1.38;;;19.10;99.90;;;;;;5014790;28;20206;-74
2022/04/21 09:26:25;;;;;;;8.30;1.48;;;19.10;99.90;;;;;;5010243;28;20666;-74
2022/04/21 09:28:59;;;;;;;4.55;1.20;;;19.10;99.90;;;;;;5004698;28;20191;-74
2022/04/21 09:31:32;;;;;;;5.97;1.20;;;19.10;99.90;;;;;;5010178;28;20252;-76
2022/04/21 09:34:04;;;;;;;8.13;1.40;;;19.10;99.90;;;;;;5011302;28;20206;-74
2022/04/21 09:36:38;;;;;;;8.07;1.10;;;19.00;99.90;;;;;;5013097;28;20628;-76
2022/04/21 09:39:09;;;;;;;8.35;1.02;;;19.00;99.90;;;;;;5013528;28;20569;-75
2022/04/21 09:41:39;;;;;;;5.15;1.20;;;18.90;99.90;;;;;;5012852;28;20250;-76
2022/04/21 09:46:57;;;;;;;5.70;1.60;;;18.80;99.90;;;;;;4995179;28;20198;-76
2022/04/21 09:49:41;;;;;;;8.45;2.10;;;18.80;99.90;;;;;;5003917;28;20242;-77
2022/04/21 09:52:12;;;;;;;7.45;4.47;;;18.90;99.90;;;;;;5012296;28;20689;-77
2022/04/21 09:54:45;;;;;;;7.38;2.22;;;18.80;99.90;;;;;;5012563;28;20558;-77
2022/04/21 09:57:30;;;;;;;7.53;1.48;;;18.70;99.90;;;;;;5012849;28;20199;-77
2022/04/21 10:00:01;;;;;;;8.73;1.45;;;18.70;99.90;;;;;;5014595;28;20523;-76
2022/04/21 10:02:36;;;;;;;8.05;1.50;;;18.70;99.90;;;;;;5012951;28;20205;-77
2022/04/21 10:05:07;;;;;;;5.70;1.63;;;18.60;99.90;;;;;;5011677;28;20605;-76
2022/04/21 10:07:38;;;;;;;9.02;1.70;;;18.60;99.90;;;;;;5013131;28;20191;-76
2022/04/21 10:10:10;;;;;;;5.90;2.38;;;18.50;99.90;;;;;;5011830;28;20214;-76
2022/04/21 10:12:41;;;;;;;3.80;2.40;;;18.50;99.90;;;;;;5013304;28;20215;-78
2022/04/21 10:15:13;;;;;;;7.07;2.70;;;18.50;99.90;;;;;;5013424;28;20198;-76
2022/04/21 10:17:45;;;;;;;7.13;2.80;;;18.40;99.90;;;;;;5011198;28;20198;-77
2022/04/21 10:20:16;;;;;;;8.80;2.78;;;18.50;99.90;;;;;;5012128;28;20199;-76
2022/04/21 10:22:47;;;;;;;9.02;3.90;;;18.50;99.90;;;;;;5014855;28;20194;-77
2022/04/21 10:25:19;;;;;;;6.03;2.28;;;18.50;99.90;;;;;;5012523;28;20199;-76
2022/04/21 10:27:50;;;;;;;11.68;4.00;;;18.50;99.90;;;;;;5010488;28;20670;-77
2022/04/21 10:30:29;;;;;;;10.40;2.60;;;18.50;99.90;;;;;;5011816;28;20187;-77
2022/04/21 10:33:02;;;;;;;5.43;2.67;;;18.50;99.90;;;;;;5012615;28;20226;-77
2022/04/21 10:35:52;;;;;;;7.93;2.20;;;18.50;99.90;;;;;;5001065;28;20217;-76
2022/04/21 10:38:26;;;;;;;6.72;2.70;;;18.50;99.90;;;;;;5012236;28;20210;-77
2022/04/21 10:41:03;;;;;;;6.40;2.17;;;18.50;99.90;;;;;;5009673;28;20214;-77
2022/04/21 10:44:04;;;;;;;6.20;2.55;;;18.50;99.90;;;;;;5010120;28;20198;-78
2022/04/21 10:46:35;;;;;;;4.35;1.27;;;18.50;99.90;;;;;;5011204;28;20206;-78
2022/04/21 10:49:07;;;;;;;6.55;2.10;;;18.50;99.90;;;;;;5011650;28;20223;-77
2022/04/21 10:58:50;;;;;;;10.20;2.22;;;18.40;99.90;;;;;;5011148;28;20229;-77
2022/04/21 11:01:23;;;;;;;7.50;2.45;;;18.40;99.90;;;;;;5011874;28;20829;-77
2022/04/21 11:04:19;;;;;;;7.88;2.22;;;18.40;99.90;;;;;;5013404;28;20226;-76
2022/04/21 11:06:51;;;;;;;10.55;2.50;;;18.40;99.90;;;;;;5006827;28;20198;-75
2022/04/21 11:09:46;;;;;;;7.43;2.10;;;18.40;99.90;;;;;;5012011;28;20292;-75
2022/04/21 11:12:19;;;;;;;8.65;2.08;;;18.40;99.90;;;;;;4995813;28;20286;-76
2022/04/21 11:14:50;;;;;;;7.95;1.50;;;18.40;99.90;;;;;;5011817;28;20202;-74
2022/04/21 11:17:21;;;;;;;5.03;1.48;;;18.40;99.90;;;;;;5010422;28;20195;-73
2022/04/21 11:20:00;;;;;;;4.97;1.15;;;18.40;99.90;;;;;;5011785;28;20672;-73
2022/04/21 11:22:41;;;;;;;8.25;2.47;;;18.40;99.90;;;;;;5008275;28;20241;-75
2022/04/21 11:25:13;;;;;;;12.38;5.55;;;18.40;99.90;;;;;;5008546;28;20256;-74
2022/04/21 11:27:47;;;;;;;113.65;62.35;;;18.50;99.90;;;;;;5007562;28;20206;-74
2022/04/21 11:30:18;;;;;;;53.05;28.88;;;18.50;99.90;;;;;;5012415;28;20190;-73
2022/04/21 11:32:56;;;;;;;4.85;1.35;;;18.40;99.90;;;;;;5012857;28;20257;-72
2022/04/21 11:35:28;;;;;;;6.50;1.70;;;18.20;99.90;;;;;;5013142;28;20187;-73
2022/04/21 11:38:00;;;;;;;10.02;1.40;;;17.90;99.90;;;;;;5011433;28;20202;-74
2022/04/21 11:40:38;;;;;;;4.15;1.17;;;17.70;99.90;;;;;;5011020;28;20281;-73
2022/04/21 11:43:17;;;;;;;4.00;0.93;;;17.60;99.90;;;;;;5012222;28;20257;-74
2022/04/21 11:45:58;;;;;;;8.23;1.85;;;17.50;99.90;;;;;;5011814;28;20268;-73
2022/04/21 11:48:33;;;;;;;3.80;1.08;;;17.40;99.90;;;;;;5010826;28;20206;-73
2022/04/21 11:51:06;;;;;;;4.75;1.40;;;17.30;99.90;;;;;;5007664;28;20230;-74
2022/04/21 11:53:40;;;;;;;2.63;1.00;;;17.30;99.90;;;;;;5008594;28;20273;-75
2022/04/21 11:56:11;;;;;;;6.82;1.38;;;17.20;99.90;;;;;;5012194;28;20203;-75
2022/04/21 11:58:42;;;;;;;4.97;1.02;;;17.20;99.90;;;;;;5003850;28;20199;-74
2022/04/21 12:06:51;;;;;;;7.80;1.00;;;17.10;99.90;;;;;;5006579;28;20551;-75
2022/04/21 12:09:25;;;;;;;8.57;1.33;;;17.00;99.90;;;;;;5012069;28;20646;-76
2022/04/21 12:11:57;;;;;;;6.30;1.30;;;17.00;99.90;;;;;;5012524;28;20199;-75
2022/04/21 12:14:28;;;;;;;14.57;6.55;;;17.00;99.90;;;;;;5012356;28;20254;-76
2022/04/21 12:16:59;;;;;;;6.90;3.13;;;17.00;99.90;;;;;;5012172;28;20194;-75
2022/04/21 12:19:34;;;;;;;5.93;1.38;;;17.00;99.90;;;;;;5012595;28;20187;-74
2022/04/21 12:22:08;;;;;;;5.25;1.85;;;16.90;99.90;;;;;;5001388;28;20190;-75
2022/04/21 12:24:40;;;;;;;8.82;3.30;;;16.90;99.90;;;;;;5012718;28;20193;-74
2022/04/21 12:27:15;;;;;;;10.82;2.10;;;16.90;99.90;;;;;;5012181;28;20615;-75
2022/04/21 12:29:51;;;;;;;7.70;1.75;;;16.90;99.90;;;;;;5011642;28;20194;-75
2022/04/21 12:32:24;;;;;;;6.78;2.10;;;16.90;99.90;;;;;;5013126;28;20194;-75
2022/04/21 12:34:57;;;;;;;6.00;1.50;;;16.90;99.90;;;;;;5011782;28;20192;-74
2022/04/21 12:37:32;;;;;;;11.82;1.67;;;16.90;99.90;;;;;;5010664;28;20314;-76
2022/04/21 12:40:04;;;;;;;7.32;1.52;;;16.90;99.90;;;;;;5010530;28;20207;-74
2022/04/21 12:42:36;;;;;;;6.82;1.33;;;17.00;99.90;;;;;;5005384;28;20203;-74
2022/04/21 12:45:07;;;;;;;8.15;1.58;;;17.00;99.90;;;;;;5010966;28;20655;-75
2022/04/21 12:47:46;;;;;;;9.68;1.65;;;17.00;99.90;;;;;;5004287;28;20237;-74
2022/04/21 12:50:22;;;;;;;7.97;1.13;;;17.00;99.90;;;;;;5010681;28;20316;-75
2022/04/21 12:52:55;;;;;;;7.28;1.05;;;17.10;99.90;;;;;;5005871;28;20281;-75
2022/04/21 12:55:30;;;;;;;11.88;1.80;;;17.10;99.90;;;;;;5014403;28;20195;-74
2022/04/21 12:58:05;;;;;;;7.50;1.67;;;17.10;99.90;;;;;;5012887;28;20190;-75
2022/04/21 13:00:37;;;;;;;9.32;1.65;;;17.10;99.90;;;;;;5008027;28;20231;-75
2022/04/21 13:03:10;;;;;;;8.20;1.88;;;17.00;99.90;;;;;;5014741;28;20257;-75
2022/04/21 13:05:49;;;;;;;10.95;1.83;;;17.10;99.90;;;;;;5015702;28;20191;-75
2022/04/21 13:08:22;;;;;;;10.35;1.48;;;17.10;99.90;;;;;;5012108;28;20308;-75
2022/04/21 13:10:53;;;;;;;9.90;1.90;;;17.00;99.90;;;;;;5013426;28;20209;-75
2022/04/21 13:13:23;;;;;;;9.68;1.70;;;17.00;99.90;;;;;;5011132;28;20211;-75
2022/04/21 13:15:55;;;;;;;10.77;2.33;;;17.00;99.90;;;;;;5014557;28;20258;-75
2022/04/21 13:18:29;;;;;;;10.43;1.50;;;17.00;99.90;;;;;;5013890;28;20202;-75
2022/04/21 13:23:48;;;;;;;10.10;1.88;;;17.00;99.90;;;;;;5014425;28;20198;-75
2022/04/21 13:26:20;;;;;;;14.35;2.00;;;17.00;99.90;;;;;;5015171;28;20202;-75
2022/04/21 13:28:50;;;;;;;5.22;1.40;;;16.90;99.90;;;;;;5012945;28;20195;-75
2022/04/21 13:34:08;;;;;;;8.77;1.70;;;16.90;99.90;;;;;;5011966;28;20301;-75
2022/04/21 13:36:40;;;;;;;6.30;1.25;;;16.90;99.90;;;;;;5010288;28;20222;-75
2022/04/21 13:39:13;;;;;;;5.97;1.10;;;16.90;99.90;;;;;;5009894;28;20195;-75
2022/04/21 13:41:44;;;;;;;6.05;1.30;;;16.90;99.90;;;;;;5011667;28;20242;-75
2022/04/21 13:44:14;;;;;;;5.03;0.95;;;16.90;99.90;;;;;;5012987;28;20203;-74
2022/04/21 13:46:46;;;;;;;3.25;0.98;;;16.80;99.90;;;;;;5013389;28;20195;-75
2022/04/21 13:49:17;;;;;;;8.57;1.20;;;16.90;99.90;;;;;;5013850;28;20682;-75
2022/04/21 13:51:48;;;;;;;5.93;0.98;;;16.90;99.90;;;;;;5011071;28;20214;-75
2022/04/21 13:54:21;;;;;;;10.05;1.20;;;16.80;99.90;;;;;;5013822;28;20581;-74
2022/04/21 13:56:52;;;;;;;7.20;0.90;;;16.90;99.90;;;;;;5013861;28;20593;-75
2022/04/21 13:59:23;;;;;;;8.90;0.93;;;16.80;99.90;;;;;;5013303;28;20213;-74
2022/04/21 14:01:54;;;;;;;5.97;1.00;;;16.80;99.90;;;;;;5012520;28;20294;-75
2022/04/21 14:04:24;;;;;;;8.00;1.00;;;16.80;99.90;;;;;;5011893;28;20202;-74
2022/04/21 14:06:55;;;;;;;6.82;1.00;;;16.80;99.90;;;;;;5013312;28;20199;-75
2022/04/21 14:09:28;;;;;;;4.68;1.00;;;16.80;99.90;;;;;;5012230;28;20604;-74
2022/04/21 14:11:59;;;;;;;7.40;0.95;;;16.80;99.90;;;;;;5009327;28;20756;-74
2022/04/21 14:14:33;;;;;;;2.42;0.57;;;16.80;99.90;;;;;;5013200;28;20550;-75
2022/04/21 14:17:05;;;;;;;9.68;1.10;;;16.80;99.90;;;;;;5012268;28;20681;-74